sensor_id;sensor_type;location;lat;lon;timestamp;P1;durP1;ratioP1;P2;durP2;ratioP2
75152;SDS011;63734;45.218;36.708;2023-03-05T00:00:12;5.32;;;1.92;;
75152;SDS011;63734;45.218;36.708;2023-03-05T00:02:40;8.75;;;2.67;;
75152;SDS011;63734;45.218;36.708;2023-03-05T00:05:07;4.22;;;2.22;;
75152;SDS011;63734;45.218;36.708;2023-03-05T00:07:33;6.47;;;2.10;;
75152;SDS011;63734;45.218;36.708;2023-03-05T00:10:00;4.75;;;2.03;;
75152;SDS011;63734;45.218;36.708;2023-03-05T00:12:28;6.03;;;2.45;;
75152;SDS011;63734;45.218;36.708;2023-03-05T00:14:54;4.47;;;2.08;;
75152;SDS011;63734;45.218;36.708;2023-03-05T00:17:20;5.13;;;1.80;;
75152;SDS011;63734;45.218;36.708;2023-03-05T00:19:46;4.93;;;2.17;;
75152;SDS011;63734;45.218;36.708;2023-03-05T00:22:12;3.60;;;1.52;;
75152;SDS011;63734;45.218;36.708;2023-03-05T00:24:38;4.40;;;2.38;;
75152;SDS011;63734;45.218;36.708;2023-03-05T00:27:04;5.63;;;1.67;;
75152;SDS011;63734;45.218;36.708;2023-03-05T00:29:30;2.58;;;1.65;;
75152;SDS011;63734;45.218;36.708;2023-03-05T00:31:56;4.47;;;1.42;;
75152;SDS011;63734;45.218;36.708;2023-03-05T00:34:22;5.88;;;1.92;;
75152;SDS011;63734;45.218;36.708;2023-03-05T00:36:50;4.63;;;1.98;;
75152;SDS011;63734;45.218;36.708;2023-03-05T00:39:19;2.95;;;1.27;;
75152;SDS011;63734;45.218;36.708;2023-03-05T00:41:46;2.53;;;1.65;;
75152;SDS011;63734;45.218;36.708;2023-03-05T00:44:12;5.47;;;1.73;;
75152;SDS011;63734;45.218;36.708;2023-03-05T00:46:38;4.68;;;2.50;;
75152;SDS011;63734;45.218;36.708;2023-03-05T00:49:04;8.05;;;2.67;;
75152;SDS011;63734;45.218;36.708;2023-03-05T00:51:31;6.22;;;1.98;;
75152;SDS011;63734;45.218;36.708;2023-03-05T00:53:57;7.15;;;1.98;;
75152;SDS011;63734;45.218;36.708;2023-03-05T00:56:23;5.10;;;1.65;;
75152;SDS011;63734;45.218;36.708;2023-03-05T00:58:50;6.72;;;2.53;;
75152;SDS011;63734;45.218;36.708;2023-03-05T01:01:17;6.18;;;2.47;;
75152;SDS011;63734;45.218;36.708;2023-03-05T01:03:43;2.53;;;1.55;;
75152;SDS011;63734;45.218;36.708;2023-03-05T01:06:10;4.10;;;1.95;;
75152;SDS011;63734;45.218;36.708;2023-03-05T01:08:39;6.97;;;2.08;;
75152;SDS011;63734;45.218;36.708;2023-03-05T01:11:05;6.78;;;1.85;;
75152;SDS011;63734;45.218;36.708;2023-03-05T01:13:33;6.95;;;2.15;;
75152;SDS011;63734;45.218;36.708;2023-03-05T01:15:59;5.47;;;2.15;;
75152;SDS011;63734;45.218;36.708;2023-03-05T01:18:25;6.85;;;2.35;;
75152;SDS011;63734;45.218;36.708;2023-03-05T01:20:51;6.45;;;2.20;;
75152;SDS011;63734;45.218;36.708;2023-03-05T01:23:17;5.43;;;1.83;;
75152;SDS011;63734;45.218;36.708;2023-03-05T01:25:43;5.20;;;2.20;;
75152;SDS011;63734;45.218;36.708;2023-03-05T01:28:10;6.78;;;1.67;;
75152;SDS011;63734;45.218;36.708;2023-03-05T01:30:36;8.38;;;1.70;;
75152;SDS011;63734;45.218;36.708;2023-03-05T01:33:02;3.50;;;1.98;;
75152;SDS011;63734;45.218;36.708;2023-03-05T01:35:28;3.72;;;1.67;;
75152;SDS011;63734;45.218;36.708;2023-03-05T01:37:55;4.05;;;1.80;;
75152;SDS011;63734;45.218;36.708;2023-03-05T01:40:29;4.88;;;2.00;;
75152;SDS011;63734;45.218;36.708;2023-03-05T01:42:58;6.78;;;2.17;;
75152;SDS011;63734;45.218;36.708;2023-03-05T01:45:28;3.60;;;1.80;;
75152;SDS011;63734;45.218;36.708;2023-03-05T01:47:56;3.42;;;2.13;;
75152;SDS011;63734;45.218;36.708;2023-03-05T01:50:23;6.90;;;2.80;;
75152;SDS011;63734;45.218;36.708;2023-03-05T01:52:55;3.58;;;2.08;;
75152;SDS011;63734;45.218;36.708;2023-03-05T01:55:27;4.55;;;2.15;;
75152;SDS011;63734;45.218;36.708;2023-03-05T01:57:55;6.22;;;2.70;;
75152;SDS011;63734;45.218;36.708;2023-03-05T02:00:28;6.50;;;3.10;;
75152;SDS011;63734;45.218;36.708;2023-03-05T02:03:00;8.55;;;3.63;;
75152;SDS011;63734;45.218;36.708;2023-03-05T02:05:31;6.00;;;3.15;;
75152;SDS011;63734;45.218;36.708;2023-03-05T02:08:01;5.60;;;3.70;;
75152;SDS011;63734;45.218;36.708;2023-03-05T02:10:30;7.13;;;3.00;;
75152;SDS011;63734;45.218;36.708;2023-03-05T02:13:03;6.68;;;3.25;;
75152;SDS011;63734;45.218;36.708;2023-03-05T02:15:32;4.40;;;2.90;;
75152;SDS011;63734;45.218;36.708;2023-03-05T02:17:59;8.75;;;3.17;;
75152;SDS011;63734;45.218;36.708;2023-03-05T02:20:29;6.90;;;3.78;;
75152;SDS011;63734;45.218;36.708;2023-03-05T02:23:08;10.27;;;4.47;;
75152;SDS011;63734;45.218;36.708;2023-03-05T02:25:34;8.98;;;3.90;;
75152;SDS011;63734;45.218;36.708;2023-03-05T02:28:01;7.20;;;3.25;;
75152;SDS011;63734;45.218;36.708;2023-03-05T02:30:31;7.00;;;3.90;;
75152;SDS011;63734;45.218;36.708;2023-03-05T02:32:57;7.60;;;3.25;;
75152;SDS011;63734;45.218;36.708;2023-03-05T02:35:24;4.10;;;2.78;;
75152;SDS011;63734;45.218;36.708;2023-03-05T02:37:51;6.93;;;3.17;;
75152;SDS011;63734;45.218;36.708;2023-03-05T02:40:17;5.32;;;3.00;;
75152;SDS011;63734;45.218;36.708;2023-03-05T02:42:44;11.60;;;3.53;;
75152;SDS011;63734;45.218;36.708;2023-03-05T02:45:12;7.85;;;3.75;;
75152;SDS011;63734;45.218;36.708;2023-03-05T02:47:38;7.60;;;3.75;;
75152;SDS011;63734;45.218;36.708;2023-03-05T02:50:06;7.45;;;3.88;;
75152;SDS011;63734;45.218;36.708;2023-03-05T02:52:35;11.50;;;5.38;;
75152;SDS011;63734;45.218;36.708;2023-03-05T02:55:04;9.25;;;3.58;;
75152;SDS011;63734;45.218;36.708;2023-03-05T02:57:31;8.98;;;4.43;;
75152;SDS011;63734;45.218;36.708;2023-03-05T02:59:57;9.93;;;4.55;;
75152;SDS011;63734;45.218;36.708;2023-03-05T03:02:23;8.40;;;4.00;;
75152;SDS011;63734;45.218;36.708;2023-03-05T03:04:49;11.02;;;4.28;;
75152;SDS011;63734;45.218;36.708;2023-03-05T03:07:15;8.02;;;3.88;;
75152;SDS011;63734;45.218;36.708;2023-03-05T03:09:41;10.30;;;3.95;;
75152;SDS011;63734;45.218;36.708;2023-03-05T03:12:08;9.75;;;4.65;;
75152;SDS011;63734;45.218;36.708;2023-03-05T03:14:35;6.32;;;3.47;;
75152;SDS011;63734;45.218;36.708;2023-03-05T03:17:07;7.78;;;3.20;;
75152;SDS011;63734;45.218;36.708;2023-03-05T03:19:35;6.88;;;3.55;;
75152;SDS011;63734;45.218;36.708;2023-03-05T03:22:02;7.07;;;3.60;;
75152;SDS011;63734;45.218;36.708;2023-03-05T03:24:29;9.73;;;3.58;;
75152;SDS011;63734;45.218;36.708;2023-03-05T03:26:56;8.27;;;3.83;;
75152;SDS011;63734;45.218;36.708;2023-03-05T03:29:22;7.93;;;3.90;;
75152;SDS011;63734;45.218;36.708;2023-03-05T03:31:48;7.93;;;4.03;;
75152;SDS011;63734;45.218;36.708;2023-03-05T03:34:14;8.20;;;3.83;;
75152;SDS011;63734;45.218;36.708;2023-03-05T03:36:42;7.55;;;3.95;;
75152;SDS011;63734;45.218;36.708;2023-03-05T03:39:09;9.75;;;4.95;;
75152;SDS011;63734;45.218;36.708;2023-03-05T03:41:36;9.40;;;4.15;;
75152;SDS011;63734;45.218;36.708;2023-03-05T03:44:05;7.95;;;3.83;;
75152;SDS011;63734;45.218;36.708;2023-03-05T03:46:33;8.32;;;3.88;;
75152;SDS011;63734;45.218;36.708;2023-03-05T03:49:00;12.45;;;4.90;;
75152;SDS011;63734;45.218;36.708;2023-03-05T03:51:26;14.30;;;4.82;;
75152;SDS011;63734;45.218;36.708;2023-03-05T03:53:52;8.95;;;3.60;;
75152;SDS011;63734;45.218;36.708;2023-03-05T03:56:18;11.52;;;4.50;;
75152;SDS011;63734;45.218;36.708;2023-03-05T03:58:44;11.40;;;4.45;;
75152;SDS011;63734;45.218;36.708;2023-03-05T04:01:10;12.77;;;4.30;;
75152;SDS011;63734;45.218;36.708;2023-03-05T04:03:36;8.82;;;4.35;;
75152;SDS011;63734;45.218;36.708;2023-03-05T04:06:02;10.07;;;4.80;;
75152;SDS011;63734;45.218;36.708;2023-03-05T04:08:28;6.88;;;4.25;;
75152;SDS011;63734;45.218;36.708;2023-03-05T04:10:54;12.13;;;5.15;;
75152;SDS011;63734;45.218;36.708;2023-03-05T04:13:20;12.27;;;5.82;;
75152;SDS011;63734;45.218;36.708;2023-03-05T04:15:46;10.07;;;5.22;;
75152;SDS011;63734;45.218;36.708;2023-03-05T04:18:12;10.63;;;5.10;;
75152;SDS011;63734;45.218;36.708;2023-03-05T04:20:38;11.50;;;5.47;;
75152;SDS011;63734;45.218;36.708;2023-03-05T04:23:04;10.50;;;5.20;;
75152;SDS011;63734;45.218;36.708;2023-03-05T04:25:30;11.90;;;5.25;;
75152;SDS011;63734;45.218;36.708;2023-03-05T04:27:56;11.02;;;5.25;;
75152;SDS011;63734;45.218;36.708;2023-03-05T04:30:22;13.18;;;4.93;;
75152;SDS011;63734;45.218;36.708;2023-03-05T04:32:48;9.98;;;5.47;;
75152;SDS011;63734;45.218;36.708;2023-03-05T04:35:14;10.90;;;5.20;;
75152;SDS011;63734;45.218;36.708;2023-03-05T04:37:40;10.52;;;5.22;;
75152;SDS011;63734;45.218;36.708;2023-03-05T04:40:06;8.52;;;3.72;;
75152;SDS011;63734;45.218;36.708;2023-03-05T04:42:33;9.18;;;4.28;;
75152;SDS011;63734;45.218;36.708;2023-03-05T04:44:59;10.48;;;5.85;;
75152;SDS011;63734;45.218;36.708;2023-03-05T04:47:25;11.23;;;4.93;;
75152;SDS011;63734;45.218;36.708;2023-03-05T04:49:51;10.70;;;5.75;;
75152;SDS011;63734;45.218;36.708;2023-03-05T04:52:17;11.18;;;5.63;;
75152;SDS011;63734;45.218;36.708;2023-03-05T04:54:43;12.85;;;5.70;;
75152;SDS011;63734;45.218;36.708;2023-03-05T04:57:09;12.98;;;6.40;;
75152;SDS011;63734;45.218;36.708;2023-03-05T04:59:36;10.77;;;5.80;;
75152;SDS011;63734;45.218;36.708;2023-03-05T05:02:02;12.02;;;6.03;;
75152;SDS011;63734;45.218;36.708;2023-03-05T05:04:29;11.93;;;5.32;;
75152;SDS011;63734;45.218;36.708;2023-03-05T05:06:55;14.02;;;4.57;;
75152;SDS011;63734;45.218;36.708;2023-03-05T05:09:22;10.68;;;4.60;;
75152;SDS011;63734;45.218;36.708;2023-03-05T05:11:49;10.32;;;5.22;;
75152;SDS011;63734;45.218;36.708;2023-03-05T05:14:15;8.00;;;4.43;;
75152;SDS011;63734;45.218;36.708;2023-03-05T05:16:42;12.13;;;6.03;;
75152;SDS011;63734;45.218;36.708;2023-03-05T05:19:08;12.13;;;5.35;;
75152;SDS011;63734;45.218;36.708;2023-03-05T05:21:34;13.23;;;6.30;;
75152;SDS011;63734;45.218;36.708;2023-03-05T05:24:00;11.02;;;5.82;;
75152;SDS011;63734;45.218;36.708;2023-03-05T05:26:26;13.70;;;5.57;;
75152;SDS011;63734;45.218;36.708;2023-03-05T05:28:52;8.18;;;4.13;;
75152;SDS011;63734;45.218;36.708;2023-03-05T05:31:18;14.02;;;5.95;;
75152;SDS011;63734;45.218;36.708;2023-03-05T05:33:44;13.10;;;6.38;;
75152;SDS011;63734;45.218;36.708;2023-03-05T05:36:11;14.43;;;6.30;;
75152;SDS011;63734;45.218;36.708;2023-03-05T05:38:39;11.63;;;5.68;;
75152;SDS011;63734;45.218;36.708;2023-03-05T05:41:07;12.20;;;6.38;;
75152;SDS011;63734;45.218;36.708;2023-03-05T05:43:34;15.70;;;7.38;;
75152;SDS011;63734;45.218;36.708;2023-03-05T05:46:02;16.95;;;7.07;;
75152;SDS011;63734;45.218;36.708;2023-03-05T05:48:30;23.10;;;8.25;;
75152;SDS011;63734;45.218;36.708;2023-03-05T05:50:57;13.82;;;6.68;;
75152;SDS011;63734;45.218;36.708;2023-03-05T05:53:23;13.75;;;6.78;;
75152;SDS011;63734;45.218;36.708;2023-03-05T05:55:51;16.98;;;7.03;;
75152;SDS011;63734;45.218;36.708;2023-03-05T05:58:17;16.75;;;6.70;;
75152;SDS011;63734;45.218;36.708;2023-03-05T06:00:43;14.63;;;7.28;;
75152;SDS011;63734;45.218;36.708;2023-03-05T06:03:09;13.35;;;6.80;;
75152;SDS011;63734;45.218;36.708;2023-03-05T06:05:35;17.35;;;6.78;;
75152;SDS011;63734;45.218;36.708;2023-03-05T06:08:01;17.60;;;7.38;;
75152;SDS011;63734;45.218;36.708;2023-03-05T06:10:27;19.67;;;9.63;;
75152;SDS011;63734;45.218;36.708;2023-03-05T06:12:54;12.45;;;6.55;;
75152;SDS011;63734;45.218;36.708;2023-03-05T06:15:19;20.70;;;7.63;;
75152;SDS011;63734;45.218;36.708;2023-03-05T06:17:46;16.75;;;8.32;;
75152;SDS011;63734;45.218;36.708;2023-03-05T06:20:12;18.42;;;8.43;;
75152;SDS011;63734;45.218;36.708;2023-03-05T06:22:39;21.65;;;9.45;;
75152;SDS011;63734;45.218;36.708;2023-03-05T06:25:06;15.10;;;6.25;;
75152;SDS011;63734;45.218;36.708;2023-03-05T06:27:33;17.73;;;7.93;;
75152;SDS011;63734;45.218;36.708;2023-03-05T06:30:04;18.00;;;7.85;;
75152;SDS011;63734;45.218;36.708;2023-03-05T06:32:31;15.82;;;8.25;;
75152;SDS011;63734;45.218;36.708;2023-03-05T06:34:57;21.83;;;7.80;;
75152;SDS011;63734;45.218;36.708;2023-03-05T06:37:32;14.10;;;7.80;;
75152;SDS011;63734;45.218;36.708;2023-03-05T06:40:00;19.95;;;9.00;;
75152;SDS011;63734;45.218;36.708;2023-03-05T06:42:26;13.63;;;7.40;;
75152;SDS011;63734;45.218;36.708;2023-03-05T06:44:53;16.02;;;7.22;;
75152;SDS011;63734;45.218;36.708;2023-03-05T06:47:19;19.13;;;8.98;;
75152;SDS011;63734;45.218;36.708;2023-03-05T06:49:45;17.08;;;9.10;;
75152;SDS011;63734;45.218;36.708;2023-03-05T06:52:11;16.88;;;7.93;;
75152;SDS011;63734;45.218;36.708;2023-03-05T06:54:37;14.13;;;6.18;;
75152;SDS011;63734;45.218;36.708;2023-03-05T06:57:03;16.05;;;9.30;;
75152;SDS011;63734;45.218;36.708;2023-03-05T06:59:29;17.17;;;7.32;;
75152;SDS011;63734;45.218;36.708;2023-03-05T07:01:55;14.70;;;6.95;;
75152;SDS011;63734;45.218;36.708;2023-03-05T07:04:21;19.33;;;9.50;;
75152;SDS011;63734;45.218;36.708;2023-03-05T07:06:48;15.90;;;8.27;;
75152;SDS011;63734;45.218;36.708;2023-03-05T07:09:14;11.27;;;6.45;;
75152;SDS011;63734;45.218;36.708;2023-03-05T07:11:41;16.45;;;8.48;;
75152;SDS011;63734;45.218;36.708;2023-03-05T07:14:07;21.25;;;9.65;;
75152;SDS011;63734;45.218;36.708;2023-03-05T07:16:33;23.10;;;9.98;;
75152;SDS011;63734;45.218;36.708;2023-03-05T07:19:01;13.40;;;7.70;;
75152;SDS011;63734;45.218;36.708;2023-03-05T07:21:31;18.52;;;7.68;;
75152;SDS011;63734;45.218;36.708;2023-03-05T07:23:59;12.63;;;6.53;;
75152;SDS011;63734;45.218;36.708;2023-03-05T07:26:29;15.80;;;7.40;;
75152;SDS011;63734;45.218;36.708;2023-03-05T07:28:57;20.58;;;9.70;;
75152;SDS011;63734;45.218;36.708;2023-03-05T07:31:25;17.55;;;7.57;;
75152;SDS011;63734;45.218;36.708;2023-03-05T07:33:55;18.83;;;8.95;;
75152;SDS011;63734;45.218;36.708;2023-03-05T07:36:22;22.67;;;8.88;;
75152;SDS011;63734;45.218;36.708;2023-03-05T07:38:48;13.20;;;7.55;;
75152;SDS011;63734;45.218;36.708;2023-03-05T07:41:15;16.00;;;8.35;;
75152;SDS011;63734;45.218;36.708;2023-03-05T07:43:50;13.63;;;6.40;;
75152;SDS011;63734;45.218;36.708;2023-03-05T07:46:18;13.90;;;6.50;;
75152;SDS011;63734;45.218;36.708;2023-03-05T07:48:46;15.60;;;6.57;;
75152;SDS011;63734;45.218;36.708;2023-03-05T07:51:14;16.58;;;8.43;;
75152;SDS011;63734;45.218;36.708;2023-03-05T07:53:42;18.45;;;7.65;;
75152;SDS011;63734;45.218;36.708;2023-03-05T07:56:09;14.32;;;7.93;;
75152;SDS011;63734;45.218;36.708;2023-03-05T07:58:35;15.65;;;8.20;;
75152;SDS011;63734;45.218;36.708;2023-03-05T08:01:02;13.70;;;7.10;;
75152;SDS011;63734;45.218;36.708;2023-03-05T08:03:28;17.55;;;7.60;;
75152;SDS011;63734;45.218;36.708;2023-03-05T08:05:54;15.98;;;7.55;;
75152;SDS011;63734;45.218;36.708;2023-03-05T08:08:20;18.15;;;6.20;;
75152;SDS011;63734;45.218;36.708;2023-03-05T08:10:46;18.55;;;8.68;;
75152;SDS011;63734;45.218;36.708;2023-03-05T08:13:12;21.45;;;8.13;;
75152;SDS011;63734;45.218;36.708;2023-03-05T08:15:38;12.60;;;7.47;;
75152;SDS011;63734;45.218;36.708;2023-03-05T08:18:04;14.88;;;6.78;;
75152;SDS011;63734;45.218;36.708;2023-03-05T08:20:33;15.82;;;7.43;;
75152;SDS011;63734;45.218;36.708;2023-03-05T08:22:59;16.90;;;6.60;;
75152;SDS011;63734;45.218;36.708;2023-03-05T08:25:25;15.63;;;6.68;;
75152;SDS011;63734;45.218;36.708;2023-03-05T08:27:52;11.73;;;6.03;;
75152;SDS011;63734;45.218;36.708;2023-03-05T08:30:19;14.35;;;7.13;;
75152;SDS011;63734;45.218;36.708;2023-03-05T08:32:49;13.50;;;6.05;;
75152;SDS011;63734;45.218;36.708;2023-03-05T08:35:16;18.10;;;7.57;;
75152;SDS011;63734;45.218;36.708;2023-03-05T08:37:42;19.83;;;9.73;;
75152;SDS011;63734;45.218;36.708;2023-03-05T08:40:08;16.45;;;7.78;;
75152;SDS011;63734;45.218;36.708;2023-03-05T08:42:35;16.80;;;7.07;;
75152;SDS011;63734;45.218;36.708;2023-03-05T08:45:01;12.02;;;6.85;;
75152;SDS011;63734;45.218;36.708;2023-03-05T08:47:27;16.25;;;8.40;;
75152;SDS011;63734;45.218;36.708;2023-03-05T08:49:53;14.52;;;6.88;;
75152;SDS011;63734;45.218;36.708;2023-03-05T08:52:21;17.80;;;7.95;;
75152;SDS011;63734;45.218;36.708;2023-03-05T08:54:47;18.13;;;8.07;;
75152;SDS011;63734;45.218;36.708;2023-03-05T08:57:14;12.70;;;6.53;;
75152;SDS011;63734;45.218;36.708;2023-03-05T08:59:39;16.15;;;6.68;;
75152;SDS011;63734;45.218;36.708;2023-03-05T09:02:08;14.30;;;7.07;;
75152;SDS011;63734;45.218;36.708;2023-03-05T09:04:38;12.02;;;6.50;;
75152;SDS011;63734;45.218;36.708;2023-03-05T09:07:04;17.67;;;8.02;;
75152;SDS011;63734;45.218;36.708;2023-03-05T09:09:30;12.25;;;6.25;;
75152;SDS011;63734;45.218;36.708;2023-03-05T09:11:58;16.10;;;6.80;;
75152;SDS011;63734;45.218;36.708;2023-03-05T09:14:25;21.42;;;8.50;;
75152;SDS011;63734;45.218;36.708;2023-03-05T09:16:53;12.32;;;7.35;;
75152;SDS011;63734;45.218;36.708;2023-03-05T09:19:19;12.23;;;5.95;;
75152;SDS011;63734;45.218;36.708;2023-03-05T09:21:45;11.82;;;6.28;;
75152;SDS011;63734;45.218;36.708;2023-03-05T09:24:11;15.10;;;7.50;;
75152;SDS011;63734;45.218;36.708;2023-03-05T09:26:38;20.73;;;8.32;;
75152;SDS011;63734;45.218;36.708;2023-03-05T09:29:05;11.75;;;6.43;;
75152;SDS011;63734;45.218;36.708;2023-03-05T09:31:33;13.15;;;6.63;;
75152;SDS011;63734;45.218;36.708;2023-03-05T09:34:00;11.90;;;6.05;;
75152;SDS011;63734;45.218;36.708;2023-03-05T09:36:27;13.93;;;6.82;;
75152;SDS011;63734;45.218;36.708;2023-03-05T09:38:54;13.25;;;6.22;;
75152;SDS011;63734;45.218;36.708;2023-03-05T09:41:25;13.73;;;7.15;;
75152;SDS011;63734;45.218;36.708;2023-03-05T09:52:20;17.02;;;8.07;;
75152;SDS011;63734;45.218;36.708;2023-03-05T09:54:54;12.32;;;5.75;;
75152;SDS011;63734;45.218;36.708;2023-03-05T09:57:24;13.27;;;6.80;;
75152;SDS011;63734;45.218;36.708;2023-03-05T10:00:10;9.70;;;5.45;;
75152;SDS011;63734;45.218;36.708;2023-03-05T10:02:44;12.75;;;5.30;;
75152;SDS011;63734;45.218;36.708;2023-03-05T10:05:19;12.20;;;7.28;;
75152;SDS011;63734;45.218;36.708;2023-03-05T10:07:54;12.43;;;6.68;;
75152;SDS011;63734;45.218;36.708;2023-03-05T10:10:32;11.68;;;5.95;;
75152;SDS011;63734;45.218;36.708;2023-03-05T10:13:18;10.00;;;5.47;;
75152;SDS011;63734;45.218;36.708;2023-03-05T10:16:02;10.55;;;5.85;;
75152;SDS011;63734;45.218;36.708;2023-03-05T10:27:07;12.20;;;5.55;;
75152;SDS011;63734;45.218;36.708;2023-03-05T10:29:47;10.60;;;5.20;;
75152;SDS011;63734;45.218;36.708;2023-03-05T10:41:06;11.27;;;5.00;;
75152;SDS011;63734;45.218;36.708;2023-03-05T10:46:31;11.27;;;4.82;;
75152;SDS011;63734;45.218;36.708;2023-03-05T10:49:04;12.05;;;6.20;;
75152;SDS011;63734;45.218;36.708;2023-03-05T11:02:55;13.55;;;5.60;;
75152;SDS011;63734;45.218;36.708;2023-03-05T11:11:14;10.38;;;6.32;;
75152;SDS011;63734;45.218;36.708;2023-03-05T11:13:52;20.55;;;7.78;;
75152;SDS011;63734;45.218;36.708;2023-03-05T11:21:40;29.52;;;15.25;;
75152;SDS011;63734;45.218;36.708;2023-03-05T11:26:52;16.73;;;8.63;;
75152;SDS011;63734;45.218;36.708;2023-03-05T11:29:25;11.98;;;6.28;;
75152;SDS011;63734;45.218;36.708;2023-03-05T11:31:56;12.93;;;7.68;;
75152;SDS011;63734;45.218;36.708;2023-03-05T11:34:40;12.75;;;6.13;;
75152;SDS011;63734;45.218;36.708;2023-03-05T11:37:09;12.75;;;7.05;;
75152;SDS011;63734;45.218;36.708;2023-03-05T11:40:04;16.52;;;7.80;;
75152;SDS011;63734;45.218;36.708;2023-03-05T11:42:37;16.90;;;6.60;;
75152;SDS011;63734;45.218;36.708;2023-03-05T11:45:05;16.33;;;7.63;;
75152;SDS011;63734;45.218;36.708;2023-03-05T11:47:41;15.27;;;6.25;;
75152;SDS011;63734;45.218;36.708;2023-03-05T11:50:24;18.02;;;9.63;;
75152;SDS011;63734;45.218;36.708;2023-03-05T11:52:57;13.70;;;6.22;;
75152;SDS011;63734;45.218;36.708;2023-03-05T12:00:44;19.20;;;9.20;;
75152;SDS011;63734;45.218;36.708;2023-03-05T12:03:22;14.10;;;7.25;;
75152;SDS011;63734;45.218;36.708;2023-03-05T12:05:58;20.40;;;8.90;;
75152;SDS011;63734;45.218;36.708;2023-03-05T12:08:36;21.63;;;9.73;;
75152;SDS011;63734;45.218;36.708;2023-03-05T12:11:06;16.83;;;10.32;;
75152;SDS011;63734;45.218;36.708;2023-03-05T12:13:43;25.17;;;12.27;;
75152;SDS011;63734;45.218;36.708;2023-03-05T12:16:16;20.75;;;10.63;;
75152;SDS011;63734;45.218;36.708;2023-03-05T12:21:37;25.27;;;12.13;;
75152;SDS011;63734;45.218;36.708;2023-03-05T12:29:29;22.63;;;10.48;;
75152;SDS011;63734;45.218;36.708;2023-03-05T12:34:59;19.17;;;7.53;;
75152;SDS011;63734;45.218;36.708;2023-03-05T12:39:58;21.08;;;10.25;;
75152;SDS011;63734;45.218;36.708;2023-03-05T12:47:47;20.17;;;8.73;;
75152;SDS011;63734;45.218;36.708;2023-03-05T13:03:46;29.88;;;13.98;;
75152;SDS011;63734;45.218;36.708;2023-03-05T13:06:37;21.95;;;11.90;;
75152;SDS011;63734;45.218;36.708;2023-03-05T13:09:16;24.17;;;11.48;;
75152;SDS011;63734;45.218;36.708;2023-03-05T13:11:45;26.45;;;10.52;;
75152;SDS011;63734;45.218;36.708;2023-03-05T13:19:55;25.08;;;11.55;;
75152;SDS011;63734;45.218;36.708;2023-03-05T13:22:21;29.05;;;13.65;;
75152;SDS011;63734;45.218;36.708;2023-03-05T13:27:49;27.40;;;13.25;;
75152;SDS011;63734;45.218;36.708;2023-03-05T13:30:26;34.70;;;15.57;;
75152;SDS011;63734;45.218;36.708;2023-03-05T13:32:56;33.33;;;13.77;;
75152;SDS011;63734;45.218;36.708;2023-03-05T13:35:28;22.23;;;9.43;;
75152;SDS011;63734;45.218;36.708;2023-03-05T13:37:55;25.95;;;12.57;;
75152;SDS011;63734;45.218;36.708;2023-03-05T13:40:26;25.85;;;10.98;;
75152;SDS011;63734;45.218;36.708;2023-03-05T13:42:54;27.65;;;13.60;;
75152;SDS011;63734;45.218;36.708;2023-03-05T13:45:34;30.88;;;13.93;;
75152;SDS011;63734;45.218;36.708;2023-03-05T13:48:03;27.98;;;12.90;;
75152;SDS011;63734;45.218;36.708;2023-03-05T13:50:36;23.10;;;10.95;;
75152;SDS011;63734;45.218;36.708;2023-03-05T13:56:07;20.33;;;9.65;;
75152;SDS011;63734;45.218;36.708;2023-03-05T14:01:29;32.45;;;13.13;;
75152;SDS011;63734;45.218;36.708;2023-03-05T14:04:14;31.85;;;11.90;;
75152;SDS011;63734;45.218;36.708;2023-03-05T14:07:00;35.25;;;17.92;;
75152;SDS011;63734;45.218;36.708;2023-03-05T14:12:05;34.47;;;15.85;;
75152;SDS011;63734;45.218;36.708;2023-03-05T14:14:36;19.73;;;9.98;;
75152;SDS011;63734;45.218;36.708;2023-03-05T14:17:22;28.08;;;13.98;;
75152;SDS011;63734;45.218;36.708;2023-03-05T14:22:42;25.65;;;11.70;;
75152;SDS011;63734;45.218;36.708;2023-03-05T14:25:30;26.27;;;10.80;;
75152;SDS011;63734;45.218;36.708;2023-03-05T14:28:03;26.00;;;11.57;;
75152;SDS011;63734;45.218;36.708;2023-03-05T14:30:29;19.65;;;10.15;;
75152;SDS011;63734;45.218;36.708;2023-03-05T14:32:57;23.33;;;11.32;;
75152;SDS011;63734;45.218;36.708;2023-03-05T14:35:26;24.83;;;9.30;;
75152;SDS011;63734;45.218;36.708;2023-03-05T14:37:54;28.13;;;12.32;;
75152;SDS011;63734;45.218;36.708;2023-03-05T14:40:25;39.25;;;18.92;;
75152;SDS011;63734;45.218;36.708;2023-03-05T14:45:25;24.67;;;11.68;;
75152;SDS011;63734;45.218;36.708;2023-03-05T14:47:59;22.42;;;11.10;;
75152;SDS011;63734;45.218;36.708;2023-03-05T14:50:27;27.85;;;12.07;;
75152;SDS011;63734;45.218;36.708;2023-03-05T14:52:57;21.15;;;9.40;;
75152;SDS011;63734;45.218;36.708;2023-03-05T14:55:27;29.83;;;14.48;;
75152;SDS011;63734;45.218;36.708;2023-03-05T14:58:06;28.30;;;11.68;;
75152;SDS011;63734;45.218;36.708;2023-03-05T15:00:38;29.85;;;11.55;;
75152;SDS011;63734;45.218;36.708;2023-03-05T15:03:05;29.15;;;12.38;;
75152;SDS011;63734;45.218;36.708;2023-03-05T15:05:32;17.38;;;8.10;;
75152;SDS011;63734;45.218;36.708;2023-03-05T15:07:58;28.38;;;10.82;;
75152;SDS011;63734;45.218;36.708;2023-03-05T15:10:25;24.85;;;11.15;;
75152;SDS011;63734;45.218;36.708;2023-03-05T15:12:51;26.40;;;11.82;;
75152;SDS011;63734;45.218;36.708;2023-03-05T15:15:18;31.45;;;15.13;;
75152;SDS011;63734;45.218;36.708;2023-03-05T15:17:47;20.65;;;9.88;;
75152;SDS011;63734;45.218;36.708;2023-03-05T15:20:17;27.83;;;10.63;;
75152;SDS011;63734;45.218;36.708;2023-03-05T15:22:46;22.85;;;10.18;;
75152;SDS011;63734;45.218;36.708;2023-03-05T15:25:12;27.52;;;10.50;;
75152;SDS011;63734;45.218;36.708;2023-03-05T15:27:38;21.17;;;9.63;;
75152;SDS011;63734;45.218;36.708;2023-03-05T15:30:05;30.40;;;13.23;;
75152;SDS011;63734;45.218;36.708;2023-03-05T15:32:37;27.80;;;12.68;;
75152;SDS011;63734;45.218;36.708;2023-03-05T15:35:03;25.80;;;10.23;;
75152;SDS011;63734;45.218;36.708;2023-03-05T15:37:30;21.92;;;9.40;;
75152;SDS011;63734;45.218;36.708;2023-03-05T15:39:56;26.75;;;9.32;;
75152;SDS011;63734;45.218;36.708;2023-03-05T15:42:23;25.98;;;10.73;;
75152;SDS011;63734;45.218;36.708;2023-03-05T15:44:49;18.35;;;8.68;;
75152;SDS011;63734;45.218;36.708;2023-03-05T15:47:15;27.77;;;10.85;;
75152;SDS011;63734;45.218;36.708;2023-03-05T15:49:41;28.15;;;11.27;;
75152;SDS011;63734;45.218;36.708;2023-03-05T15:52:07;25.20;;;12.02;;
75152;SDS011;63734;45.218;36.708;2023-03-05T15:54:34;34.75;;;13.93;;
75152;SDS011;63734;45.218;36.708;2023-03-05T15:57:01;33.28;;;13.77;;
75152;SDS011;63734;45.218;36.708;2023-03-05T15:59:27;30.80;;;13.68;;
75152;SDS011;63734;45.218;36.708;2023-03-05T16:01:53;36.92;;;14.52;;
75152;SDS011;63734;45.218;36.708;2023-03-05T16:04:19;37.88;;;14.55;;
75152;SDS011;63734;45.218;36.708;2023-03-05T16:06:46;33.15;;;13.90;;
75152;SDS011;63734;45.218;36.708;2023-03-05T16:09:15;35.00;;;12.60;;
75152;SDS011;63734;45.218;36.708;2023-03-05T16:11:43;33.70;;;13.07;;
75152;SDS011;63734;45.218;36.708;2023-03-05T16:14:14;29.70;;;12.10;;
75152;SDS011;63734;45.218;36.708;2023-03-05T16:16:46;33.53;;;12.45;;
75152;SDS011;63734;45.218;36.708;2023-03-05T16:19:15;33.58;;;13.43;;
75152;SDS011;63734;45.218;36.708;2023-03-05T16:21:43;29.73;;;11.70;;
75152;SDS011;63734;45.218;36.708;2023-03-05T16:24:10;28.85;;;12.25;;